メインページ
METAR-TAF:

METAR-TAF

空港 :

モントリオール・ピエール・エリオット・トルドー国際空港

モントリオール・トルドー, ケベック州, カナダ

緯度: 45-28N, 経度: 073-45W, 海抜: 31m

現時点の気象観測

当レポートは23分前の23:00(UTC)に作成
北東の風 12kt
気温 12°C
湿度 40%
気圧 1033 hPa
視程: 48.3km
高度18000ftの雲はほとんどない
高度21000ftの千切れ雲あり

METAR: CYUL 242300Z 05012KT 30SM FEW180 BKN210 12/M01 A3050 RMK AC1CI5 AC TR SLP332

時間: 19:23 (23:23 UTC)

予報

当レポートは2時間45分前の20:38(UTC)に作成
予報は24日の 21時(UTC)から 25日の 18時(UTC)まで有効
東/北東の風 12kt
視程: 10km
高度18000ftの雲はほとんどない
高度24000ftの雲は散在している
25日の 03時(UTC)から 25日の 05時(UTC)まで徐々に
南東の風 12kt
25日の 1100時(UTC)から
南/南東の風 15kt
視程: 10km
高度4000ftの千切れ雲あり
高度18000ftの曇り
25日の 1300時(UTC)から
南/南東の風 15kt、最大25ktの突風を伴う
視程: 10km
高度2500ftの曇り
小雨
25日の 1600時(UTC)から
南/南東の風 15kt、最大25ktの突風を伴う
視程: 6.4km
高度1200ftの千切れ雲あり
高度2000ftの曇り
小雨, 靄

TAF: CYUL 242038Z 2421/2518 07012KT P6SM FEW180 SCT240 BECMG 2503/2505 14012KT FM251100 15015KT P6SM BKN040 OVC180 FM251300 16015G25KT P6SM -RA OVC025 FM251600 16015G25KT 4SM -RA BR BKN012 OVC020 RMK NXT FCST BY 250000Z

4,000以上の空港の気象観測と天気予報(METAR報とTAF報)

利用可能な観測所は地図上に黄色い丸と赤い丸で示す。

丸の上にカーソルを重ねると観測所名を参照できる。

次にクリックすると気象観測と天気予報を参照できる。

マップの切り替え:黒色「×」印の緑ボタンをクリックして拡大、「-」印の緑ボタンをクリックして縮小、緑色の三角印をクリックして隣りの地図に切り替え


METAR-TAF: